createdAt,value
2023-10-01T00:04:23.228Z,11.70
2023-10-01T00:10:27.075Z,8.17
2023-10-01T00:16:30.554Z,8.33
2023-10-01T00:22:34.833Z,12.83
2023-10-01T00:28:37.207Z,10.30
2023-10-01T00:34:39.163Z,12.37
2023-10-01T00:40:46.563Z,6.93
2023-10-01T00:46:49.439Z,5.40
2023-10-01T00:52:54.393Z,7.70
2023-10-01T00:58:56.657Z,8.03
2023-10-01T01:05:20.989Z,8.23
2023-10-01T01:11:27.314Z,5.53
2023-10-01T01:17:32.243Z,6.80
2023-10-01T01:23:35.172Z,4.87
2023-10-01T01:29:45.941Z,9.33
2023-10-01T01:35:52.140Z,12.00
2023-10-01T01:41:55.659Z,5.10
2023-10-01T01:47:57.621Z,8.90
2023-10-01T01:54:00.537Z,10.27
2023-10-01T02:00:15.157Z,9.03
2023-10-01T02:06:28.012Z,6.63
2023-10-01T02:12:31.354Z,12.43
2023-10-01T02:18:33.347Z,9.20
2023-10-01T02:24:56.109Z,5.50
2023-10-01T02:31:01.952Z,6.17
2023-10-01T02:37:08.161Z,5.63
2023-10-01T02:43:10.472Z,5.80
2023-10-01T02:49:14.057Z,6.07
2023-10-01T02:55:19.885Z,14.93
2023-10-01T03:01:22.513Z,8.37
2023-10-01T03:07:26.410Z,8.03
2023-10-01T03:13:32.082Z,6.63
2023-10-01T03:19:37.427Z,5.50
2023-10-01T03:25:57.395Z,5.40
2023-10-01T03:32:19.330Z,6.37
2023-10-01T03:38:24.113Z,8.50
2023-10-01T03:44:44.276Z,8.63
2023-10-01T03:50:46.828Z,5.60
2023-10-01T03:56:58.818Z,11.17
2023-10-01T04:03:02.198Z,7.53
2023-10-01T04:09:07.558Z,5.23
2023-10-01T04:15:10.768Z,7.87
2023-10-01T04:21:12.773Z,7.67
2023-10-01T04:27:24.492Z,5.00
2023-10-01T04:33:26.685Z,7.40
2023-10-01T04:39:28.617Z,6.03
2023-10-01T04:45:37.755Z,9.57
2023-10-01T04:51:48.523Z,5.40
2023-10-01T04:57:51.375Z,8.07
2023-10-01T05:03:55.285Z,6.00
2023-10-01T05:09:57.383Z,5.93
2023-10-01T05:15:59.447Z,6.93
2023-10-01T05:22:02.584Z,7.23
2023-10-01T05:28:24.491Z,10.23
2023-10-01T05:34:26.593Z,5.07
2023-10-01T05:40:31.282Z,7.40
2023-10-01T05:46:33.435Z,5.83
2023-10-01T05:52:41.325Z,4.00
2023-10-01T05:58:43.319Z,8.40
2023-10-01T06:04:45.280Z,5.60
2023-10-01T06:11:00.887Z,5.30
2023-10-01T06:17:06.377Z,5.97
2023-10-01T06:23:08.823Z,8.20
2023-10-01T06:29:12.506Z,6.10
2023-10-01T06:35:15.821Z,6.93
2023-10-01T06:41:20.190Z,6.53
2023-10-01T06:47:27.176Z,8.07
2023-10-01T06:53:45.116Z,7.67
2023-10-01T06:59:47.126Z,6.10
2023-10-01T07:05:57.115Z,4.80
2023-10-01T07:12:00.406Z,7.20
2023-10-01T07:18:14.754Z,6.00
2023-10-01T07:24:16.955Z,5.23
2023-10-01T07:30:19.507Z,12.97
2023-10-01T07:36:24.684Z,17.33
2023-10-01T07:42:28.462Z,7.13
2023-10-01T07:48:32.791Z,5.37
2023-10-01T07:54:34.815Z,5.60
2023-10-01T08:00:37.598Z,7.80
2023-10-01T08:06:43.664Z,5.03
2023-10-01T08:12:51.807Z,9.03
2023-10-01T08:18:59.599Z,6.23
2023-10-01T08:25:09.728Z,6.90
2023-10-01T08:31:41.091Z,7.23
2023-10-01T08:37:50.615Z,7.53
2023-10-01T08:44:10.310Z,7.97
2023-10-01T08:50:27.556Z,6.13
2023-10-01T08:56:35.524Z,5.77
2023-10-01T09:02:40.356Z,7.00
2023-10-01T09:08:46.477Z,4.83
2023-10-01T09:14:48.458Z,6.43
2023-10-01T09:21:05.066Z,6.47
2023-10-01T09:27:35.866Z,7.73
2023-10-01T09:33:41.137Z,8.17
2023-10-01T09:39:43.491Z,6.33
2023-10-01T09:45:53.618Z,6.87
2023-10-01T09:52:00.133Z,8.47
2023-10-01T09:58:11.429Z,5.53
2023-10-01T10:04:21.528Z,6.60
2023-10-01T10:10:28.002Z,6.33
2023-10-01T10:16:36.845Z,9.03
2023-10-01T10:22:39.545Z,5.40
2023-10-01T10:28:56.302Z,9.87
2023-10-01T10:35:07.889Z,9.77
2023-10-01T10:41:10.052Z,6.70
2023-10-01T10:47:13.173Z,11.10
2023-10-01T10:53:44.572Z,9.53
2023-10-01T10:59:48.858Z,9.20
2023-10-01T11:05:50.867Z,11.97
2023-10-01T11:12:06.946Z,9.53
2023-10-01T11:18:12.550Z,12.17
2023-10-01T11:24:14.905Z,7.37
2023-10-01T11:30:17.632Z,8.57
2023-10-01T11:36:22.671Z,9.50
2023-10-01T11:42:39.682Z,9.30
2023-10-01T11:48:57.906Z,10.73
2023-10-01T11:55:00.416Z,10.80
2023-10-01T12:01:11.917Z,16.40
2023-10-01T12:07:19.509Z,10.13
2023-10-01T12:13:22.871Z,12.93
2023-10-01T12:19:25.532Z,10.33
2023-10-01T12:25:43.636Z,9.10
2023-10-01T12:31:46.027Z,8.90
2023-10-01T12:37:48.194Z,7.63
2023-10-01T12:43:51.201Z,10.50
2023-10-01T12:50:00.277Z,9.87
2023-10-01T12:56:06.367Z,8.60
2023-10-01T13:02:42.309Z,7.60
2023-10-01T13:08:45.534Z,9.30
2023-10-01T13:15:12.544Z,8.87
2023-10-01T13:21:15.004Z,8.57
2023-10-01T13:27:18.688Z,14.67
2023-10-01T13:33:22.016Z,8.00
2023-10-01T13:39:45.462Z,11.37
2023-10-01T13:46:05.640Z,9.63
2023-10-01T13:52:26.319Z,7.80
2023-10-01T13:58:46.653Z,9.67
2023-10-01T14:05:07.598Z,7.90
2023-10-01T14:11:11.171Z,7.97
2023-10-01T14:17:16.355Z,10.10
2023-10-01T14:23:24.493Z,9.87
2023-10-01T14:29:32.966Z,6.73
2023-10-01T14:35:39.014Z,9.60
2023-10-01T14:41:47.093Z,9.93
2023-10-01T14:47:49.851Z,7.93
2023-10-01T14:53:55.815Z,10.80
2023-10-01T14:59:58.173Z,16.53
2023-10-01T15:06:05.151Z,15.70
2023-10-01T15:12:20.193Z,9.10
2023-10-01T15:18:35.956Z,9.60
2023-10-01T15:24:45.582Z,11.10
2023-10-01T15:30:49.144Z,8.93
2023-10-01T15:36:51.903Z,10.00
2023-10-01T15:42:56.988Z,11.47
2023-10-01T15:49:02.518Z,20.13
2023-10-01T15:55:08.679Z,11.43
2023-10-01T16:01:20.887Z,11.13
2023-10-01T16:07:22.959Z,14.57
2023-10-01T16:13:29.696Z,11.93
2023-10-01T16:19:31.947Z,9.90
2023-10-01T16:25:36.124Z,12.70
2023-10-01T16:31:38.198Z,13.70
2023-10-01T16:37:40.368Z,12.50
2023-10-01T16:43:43.916Z,10.50
2023-10-01T16:49:46.017Z,15.53
2023-10-01T16:55:52.106Z,13.40
2023-10-01T17:01:59.654Z,11.47
2023-10-01T17:08:02.693Z,16.50
2023-10-01T17:14:15.769Z,12.07
2023-10-01T17:20:32.145Z,13.30
2023-10-01T17:26:51.302Z,13.30
2023-10-01T17:33:03.091Z,14.27
2023-10-01T17:39:21.583Z,12.23
2023-10-01T17:45:23.677Z,16.30
2023-10-01T17:51:28.749Z,12.23
2023-10-01T17:57:37.870Z,13.67
2023-10-01T18:03:54.128Z,12.63
2023-10-01T18:09:56.903Z,12.90
2023-10-01T18:15:58.875Z,13.27
2023-10-01T18:22:05.028Z,14.53
2023-10-01T18:28:08.883Z,14.60
2023-10-01T18:34:11.838Z,11.70
2023-10-01T18:40:18.072Z,13.27
2023-10-01T18:46:20.287Z,13.90
2023-10-01T18:52:23.861Z,10.90
2023-10-01T18:58:26.016Z,13.17
2023-10-01T19:04:34.748Z,13.93
2023-10-01T19:10:38.141Z,14.40
2023-10-01T19:16:40.299Z,13.70
2023-10-01T19:22:52.617Z,13.30
2023-10-01T19:28:55.117Z,13.67
2023-10-01T19:35:00.696Z,12.77
2023-10-01T19:41:02.687Z,14.93
2023-10-01T19:47:16.068Z,27.00
2023-10-01T19:53:26.451Z,21.90
2023-10-01T19:59:32.293Z,15.07
2023-10-01T20:05:47.941Z,17.23
2023-10-01T20:11:57.602Z,15.07
2023-10-01T20:18:12.285Z,13.47
2023-10-01T20:24:23.647Z,24.40
2023-10-01T20:30:26.293Z,16.70
2023-10-01T20:36:28.800Z,17.13
2023-10-01T20:42:30.800Z,18.00
2023-10-01T20:48:38.314Z,14.57
2023-10-01T20:54:45.945Z,17.60
2023-10-01T21:00:51.950Z,14.00
2023-10-01T21:07:03.175Z,12.87
2023-10-01T21:13:05.448Z,17.20
2023-10-01T21:19:13.030Z,14.47
2023-10-01T21:25:26.514Z,15.73
2023-10-01T21:31:28.735Z,11.70
2023-10-01T21:37:31.841Z,11.57
2023-10-01T21:43:33.947Z,14.77
2023-10-01T21:49:48.258Z,17.00
2023-10-01T21:55:50.243Z,15.70
2023-10-01T22:02:02.752Z,13.43
2023-10-01T22:08:25.856Z,14.93
2023-10-01T22:14:29.709Z,19.70
2023-10-01T22:20:32.324Z,17.10
2023-10-01T22:26:36.579Z,22.80
2023-10-01T22:32:38.730Z,16.90
2023-10-01T22:38:51.310Z,14.43
2023-10-01T22:45:28.150Z,17.57
2023-10-01T22:51:31.773Z,15.30
2023-10-01T22:57:44.877Z,16.70
2023-10-01T23:03:47.536Z,14.23
2023-10-01T23:09:49.966Z,15.63
2023-10-01T23:15:52.392Z,13.83
2023-10-01T23:22:01.941Z,21.37
2023-10-01T23:28:15.257Z,15.47
2023-10-01T23:34:23.822Z,14.47
2023-10-01T23:40:26.209Z,14.77
2023-10-01T23:46:34.485Z,12.70
2023-10-01T23:52:36.562Z,18.97
2023-10-01T23:58:47.656Z,16.70
